PWSweather.com
Personal Weather Stations
Station Observations
MENWDWX1
Menstrie, ScotlandGB

MenstrieScotlandGB

Lat: 56.148322, Lon: -3.85483

Elevation: 62

Station Type: Davis Vantage Pro 2

High Low Average
Temperature 33.5°F0.8°C 21.3°F-5.9°C 25.9°F-3.4°C
Dew Point 26.7°F-2.9°C 16.1°F-8.8°C 20.2°F-6.6°C
Winds 4.6 mph 7.4 kmh Calm Calm 1.0 mph SE1.6 kmh SE
Wind Gusts 8.1 mph13.0 kmh -- 1.0 mph1.6 kmh
Humidity 86% 76% 79%
Pressure 30.52 in1033.5 mb 30.40 in1029.5 mb -
Precipitation 0.01 in0.3 mm - -
Hour Temp Dew Point Humidity Winds Wind Gusts Pressure Precip Precip Rate Daily Precip Total
12:00 AM 27.1°F-2.7°C 21.2°F-6.0°C 78% Calm Calm -- 30.40 in1029.5 mb - 0.00 in0.0 mm 0.00 in0.0 mm
12:05 AM 26.9°F-2.8°C 21.0°F-6.1°C 78% 1.2 mph W1.9 kmh W 3.5 mph5.6 kmh 30.40 in1029.5 mb - 0.00 in0.0 mm 0.00 in0.0 mm
12:10 AM 26.7°F-2.9°C 20.8°F-6.2°C 78% Calm Calm 1.2 mph1.9 kmh 30.40 in1029.5 mb - 0.00 in0.0 mm 0.00 in0.0 mm
12:15 AM 26.5°F-3.1°C 20.6°F-6.3°C 78% Calm Calm -- 30.40 in1029.5 mb - 0.00 in0.0 mm 0.00 in0.0 mm
12:20 AM 26.5°F-3.1°C 20.6°F-6.3°C 78% Calm Calm -- 30.40 in1029.5 mb - 0.00 in0.0 mm 0.00 in0.0 mm
12:25 AM 26.6°F-3.0°C 20.7°F-6.3°C 78% 1.2 mph W1.9 kmh W 3.5 mph5.6 kmh 30.40 in1029.5 mb - 0.00 in0.0 mm 0.00 in0.0 mm
12:30 AM 26.7°F-2.9°C 20.8°F-6.2°C 78% 1.2 mph W1.9 kmh W 3.5 mph5.6 kmh 30.40 in1029.5 mb - 0.00 in0.0 mm 0.00 in0.0 mm
12:35 AM 27.0°F-2.8°C 21.0°F-6.1°C 78% 2.3 mph W3.7 kmh W 3.5 mph5.6 kmh 30.40 in1029.5 mb - 0.00 in0.0 mm 0.00 in0.0 mm
12:40 AM 27.1°F-2.7°C 21.2°F-6.0°C 78% 2.3 mph W3.7 kmh W 3.5 mph5.6 kmh 30.40 in1029.5 mb - 0.00 in0.0 mm 0.00 in0.0 mm
12:45 AM 27.2°F-2.7°C 21.2°F-6.0°C 78% Calm Calm 2.3 mph3.7 kmh 30.41 in1029.8 mb - 0.00 in0.0 mm 0.00 in0.0 mm
12:50 AM 27.3°F-2.6°C 21.3°F-5.9°C 78% 2.3 mph W3.7 kmh W 3.5 mph5.6 kmh 30.40 in1029.5 mb - 0.00 in0.0 mm 0.00 in0.0 mm
12:55 AM 27.3°F-2.6°C 21.3°F-5.9°C 78% Calm Calm -- 30.40 in1029.5 mb - 0.00 in0.0 mm 0.00 in0.0 mm
01:00 AM 27.2°F-2.7°C 21.2°F-6.0°C 78% 1.2 mph W1.9 kmh W 2.3 mph3.7 kmh 30.40 in1029.5 mb - 0.00 in0.0 mm 0.00 in0.0 mm
01:05 AM 27.0°F-2.8°C 21.1°F-6.1°C 78% 2.3 mph W3.7 kmh W 3.5 mph5.6 kmh 30.40 in1029.5 mb - 0.00 in0.0 mm 0.00 in0.0 mm
01:10 AM 26.9°F-2.8°C 20.9°F-6.2°C 78% 1.2 mph NW1.9 kmh NW 2.3 mph3.7 kmh 30.40 in1029.5 mb - 0.00 in0.0 mm 0.00 in0.0 mm
01:15 AM 26.7°F-2.9°C 20.8°F-6.2°C 78% 1.2 mph NW1.9 kmh NW 2.3 mph3.7 kmh 30.40 in1029.5 mb - 0.00 in0.0 mm 0.00 in0.0 mm
01:20 AM 26.6°F-3.0°C 20.6°F-6.3°C 78% 1.2 mph NW1.9 kmh NW 3.5 mph5.6 kmh 30.40 in1029.5 mb - 0.00 in0.0 mm 0.00 in0.0 mm
01:25 AM 26.3°F-3.2°C 20.4°F-6.4°C 78% 2.3 mph NE3.7 kmh NE 3.5 mph5.6 kmh 30.41 in1029.8 mb - 0.00 in0.0 mm 0.00 in0.0 mm
01:30 AM 26.1°F-3.3°C 20.2°F-6.6°C 78% Calm Calm 1.2 mph1.9 kmh 30.41 in1029.8 mb - 0.00 in0.0 mm 0.00 in0.0 mm
01:35 AM 26.0°F-3.3°C 20.1°F-6.6°C 78% 1.2 mph NE1.9 kmh NE 2.3 mph3.7 kmh 30.41 in1029.8 mb - 0.00 in0.0 mm 0.00 in0.0 mm
01:40 AM 26.0°F-3.3°C 20.1°F-6.6°C 78% 1.2 mph NE1.9 kmh NE 3.5 mph5.6 kmh 30.41 in1029.8 mb - 0.00 in0.0 mm 0.00 in0.0 mm
01:45 AM 26.2°F-3.2°C 20.3°F-6.5°C 78% 2.3 mph NE3.7 kmh NE 3.5 mph5.6 kmh 30.41 in1029.8 mb - 0.00 in0.0 mm 0.00 in0.0 mm
01:50 AM 26.4°F-3.1°C 20.5°F-6.4°C 78% 1.2 mph NE1.9 kmh NE 3.5 mph5.6 kmh 30.42 in1030.1 mb - 0.00 in0.0 mm 0.00 in0.0 mm
01:55 AM 26.6°F-3.0°C 20.7°F-6.3°C 78% 4.6 mph E7.4 kmh E 8.1 mph13.0 kmh 30.42 in1030.1 mb - 0.00 in0.0 mm 0.00 in0.0 mm
02:00 AM 26.9°F-2.8°C 21.0°F-6.1°C 78% 4.6 mph E7.4 kmh E 4.6 mph7.4 kmh 30.42 in1030.1 mb - 0.00 in0.0 mm 0.00 in0.0 mm
02:05 AM 27.1°F-2.7°C 21.2°F-6.0°C 78% 3.5 mph E5.6 kmh E 3.5 mph5.6 kmh 30.42 in1030.1 mb - 0.00 in0.0 mm 0.00 in0.0 mm
02:10 AM 27.0°F-2.8°C 21.1°F-6.1°C 78% 2.3 mph E3.7 kmh E 3.5 mph5.6 kmh 30.42 in1030.1 mb - 0.00 in0.0 mm 0.00 in0.0 mm
02:15 AM 26.9°F-2.8°C 21.0°F-6.1°C 78% 2.3 mph E3.7 kmh E 3.5 mph5.6 kmh 30.43 in1030.5 mb - 0.00 in0.0 mm 0.00 in0.0 mm
02:20 AM 26.7°F-2.9°C 20.8°F-6.2°C 78% Calm Calm -- 30.42 in1030.1 mb - 0.00 in0.0 mm 0.00 in0.0 mm
02:25 AM 26.6°F-3.0°C 20.7°F-6.3°C 78% 1.2 mph E1.9 kmh E 2.3 mph3.7 kmh 30.42 in1030.1 mb - 0.00 in0.0 mm 0.00 in0.0 mm
02:30 AM 26.5°F-3.1°C 20.6°F-6.3°C 78% Calm Calm -- 30.43 in1030.5 mb - 0.00 in0.0 mm 0.00 in0.0 mm
02:35 AM 26.5°F-3.1°C 20.6°F-6.3°C 78% Calm Calm -- 30.43 in1030.5 mb - 0.00 in0.0 mm 0.00 in0.0 mm
02:40 AM 26.4°F-3.1°C 20.5°F-6.4°C 78% Calm Calm -- 30.43 in1030.5 mb - 0.00 in0.0 mm 0.00 in0.0 mm
02:45 AM 26.4°F-3.1°C 20.4°F-6.4°C 78% Calm Calm -- 30.43 in1030.5 mb - 0.00 in0.0 mm 0.00 in0.0 mm
02:50 AM 26.3°F-3.2°C 20.4°F-6.4°C 78% Calm Calm -- 30.43 in1030.5 mb - 0.00 in0.0 mm 0.00 in0.0 mm
02:55 AM 26.3°F-3.2°C 20.4°F-6.4°C 78% Calm Calm -- 30.43 in1030.5 mb - 0.00 in0.0 mm 0.00 in0.0 mm
03:00 AM 26.5°F-3.1°C 20.6°F-6.3°C 78% 2.3 mph NNE3.7 kmh NNE 4.6 mph7.4 kmh 30.43 in1030.5 mb - 0.00 in0.0 mm 0.00 in0.0 mm
03:05 AM 26.6°F-3.0°C 20.7°F-6.3°C 78% 1.2 mph N1.9 kmh N 2.3 mph3.7 kmh 30.43 in1030.5 mb - 0.00 in0.0 mm 0.00 in0.0 mm
03:10 AM 26.4°F-3.1°C 20.5°F-6.4°C 78% Calm Calm 1.2 mph1.9 kmh 30.43 in1030.5 mb - 0.00 in0.0 mm 0.00 in0.0 mm
03:15 AM 26.1°F-3.3°C 20.1°F-6.6°C 78% 1.2 mph N1.9 kmh N 2.3 mph3.7 kmh 30.43 in1030.5 mb - 0.00 in0.0 mm 0.00 in0.0 mm
03:20 AM 25.7°F-3.5°C 19.8°F-6.8°C 78% 1.2 mph N1.9 kmh N 2.3 mph3.7 kmh 30.44 in1030.8 mb - 0.00 in0.0 mm 0.00 in0.0 mm
03:25 AM 25.4°F-3.7°C 19.5°F-6.9°C 78% 2.3 mph N3.7 kmh N 3.5 mph5.6 kmh 30.44 in1030.8 mb - 0.00 in0.0 mm 0.00 in0.0 mm
03:30 AM 25.2°F-3.8°C 19.3°F-7.1°C 78% 1.2 mph N1.9 kmh N 2.3 mph3.7 kmh 30.44 in1030.8 mb - 0.00 in0.0 mm 0.00 in0.0 mm
03:35 AM 25.1°F-3.8°C 19.2°F-7.1°C 78% 1.2 mph N1.9 kmh N 2.3 mph3.7 kmh 30.44 in1030.8 mb - 0.00 in0.0 mm 0.00 in0.0 mm
03:40 AM 24.9°F-3.9°C 19.0°F-7.2°C 78% 1.2 mph N1.9 kmh N 2.3 mph3.7 kmh 30.44 in1030.8 mb - 0.00 in0.0 mm 0.00 in0.0 mm
03:45 AM 25.1°F-3.8°C 19.2°F-7.1°C 78% Calm Calm 2.3 mph3.7 kmh 30.44 in1030.8 mb - 0.00 in0.0 mm 0.00 in0.0 mm
03:50 AM 25.2°F-3.8°C 19.3°F-7.1°C 78% 1.2 mph N1.9 kmh N 1.2 mph1.9 kmh 30.44 in1030.8 mb - 0.00 in0.0 mm 0.00 in0.0 mm
03:55 AM 25.1°F-3.8°C 19.3°F-7.1°C 78% 1.2 mph N1.9 kmh N 2.3 mph3.7 kmh 30.44 in1030.8 mb - 0.00 in0.0 mm 0.00 in0.0 mm
04:00 AM 25.1°F-3.8°C 19.2°F-7.1°C 78% Calm Calm -- 30.44 in1030.8 mb - 0.00 in0.0 mm 0.00 in0.0 mm
04:05 AM 24.9°F-3.9°C 19.0°F-7.2°C 78% Calm Calm -- 30.44 in1030.8 mb - 0.00 in0.0 mm 0.00 in0.0 mm
04:10 AM 24.7°F-4.1°C 18.8°F-7.3°C 78% Calm Calm -- 30.44 in1030.8 mb - 0.00 in0.0 mm 0.00 in0.0 mm
04:15 AM 24.5°F-4.2°C 18.9°F-7.3°C 79% Calm Calm -- 30.44 in1030.8 mb - 0.00 in0.0 mm 0.00 in0.0 mm
04:20 AM 24.4°F-4.2°C 18.5°F-7.5°C 78% 1.2 mph N1.9 kmh N 1.2 mph1.9 kmh 30.44 in1030.8 mb - 0.00 in0.0 mm 0.00 in0.0 mm
04:25 AM 24.2°F-4.3°C 18.3°F-7.6°C 78% Calm Calm -- 30.44 in1030.8 mb - 0.00 in0.0 mm 0.00 in0.0 mm
04:30 AM 24.2°F-4.3°C 18.6°F-7.4°C 79% Calm Calm -- 30.44 in1030.8 mb - 0.00 in0.0 mm 0.00 in0.0 mm
04:35 AM 24.1°F-4.4°C 18.6°F-7.4°C 79% Calm Calm -- 30.44 in1030.8 mb - 0.00 in0.0 mm 0.00 in0.0 mm
04:40 AM 24.0°F-4.4°C 18.4°F-7.6°C 79% Calm Calm -- 30.44 in1030.8 mb - 0.00 in0.0 mm 0.00 in0.0 mm
04:45 AM 23.9°F-4.5°C 18.3°F-7.6°C 79% Calm Calm -- 30.44 in1030.8 mb - 0.00 in0.0 mm 0.00 in0.0 mm
04:50 AM 23.8°F-4.6°C 18.2°F-7.7°C 79% Calm Calm -- 30.44 in1030.8 mb - 0.00 in0.0 mm 0.00 in0.0 mm
04:55 AM 23.8°F-4.6°C 18.2°F-7.7°C 79% Calm Calm -- 30.44 in1030.8 mb - 0.00 in0.0 mm 0.00 in0.0 mm
05:00 AM 23.6°F-4.7°C 18.0°F-7.8°C 79% Calm Calm -- 30.44 in1030.8 mb - 0.00 in0.0 mm 0.00 in0.0 mm
05:05 AM 23.4°F-4.8°C 17.8°F-7.9°C 79% 2.3 mph N3.7 kmh N 3.5 mph5.6 kmh 30.44 in1030.8 mb - 0.00 in0.0 mm 0.00 in0.0 mm
05:10 AM 23.7°F-4.6°C 18.1°F-7.7°C 79% 2.3 mph N3.7 kmh N 3.5 mph5.6 kmh 30.45 in1031.2 mb - 0.00 in0.0 mm 0.00 in0.0 mm
05:15 AM 23.9°F-4.5°C 18.3°F-7.6°C 79% 2.3 mph NNE3.7 kmh NNE 3.5 mph5.6 kmh 30.45 in1031.2 mb - 0.00 in0.0 mm 0.00 in0.0 mm
05:20 AM 24.1°F-4.4°C 18.5°F-7.5°C 79% 1.2 mph NNE1.9 kmh NNE 2.3 mph3.7 kmh 30.45 in1031.2 mb - 0.00 in0.0 mm 0.00 in0.0 mm
05:25 AM 24.2°F-4.3°C 18.6°F-7.4°C 79% 1.2 mph NNE1.9 kmh NNE 3.5 mph5.6 kmh 30.45 in1031.2 mb - 0.00 in0.0 mm 0.00 in0.0 mm
05:30 AM 24.4°F-4.2°C 18.8°F-7.3°C 79% 2.3 mph NNE3.7 kmh NNE 3.5 mph5.6 kmh 30.45 in1031.2 mb - 0.00 in0.0 mm 0.00 in0.0 mm
05:35 AM 24.5°F-4.2°C 18.9°F-7.3°C 79% 1.2 mph N1.9 kmh N 1.2 mph1.9 kmh 30.45 in1031.2 mb - 0.00 in0.0 mm 0.00 in0.0 mm
05:40 AM 24.2°F-4.3°C 18.6°F-7.4°C 79% Calm Calm 2.3 mph3.7 kmh 30.46 in1031.5 mb - 0.00 in0.0 mm 0.00 in0.0 mm
05:45 AM 23.8°F-4.6°C 18.3°F-7.6°C 79% 1.2 mph N1.9 kmh N 1.2 mph1.9 kmh 30.46 in1031.5 mb - 0.00 in0.0 mm 0.00 in0.0 mm
05:50 AM 23.6°F-4.7°C 18.0°F-7.8°C 79% Calm Calm -- 30.46 in1031.5 mb - 0.00 in0.0 mm 0.00 in0.0 mm
05:55 AM 23.4°F-4.8°C 17.8°F-7.9°C 79% Calm Calm -- 30.46 in1031.5 mb - 0.00 in0.0 mm 0.00 in0.0 mm
06:00 AM 23.3°F-4.8°C 17.7°F-7.9°C 79% Calm Calm -- 30.46 in1031.5 mb - 0.00 in0.0 mm 0.00 in0.0 mm
06:05 AM 23.1°F-4.9°C 17.6°F-8.0°C 79% Calm Calm -- 30.46 in1031.5 mb - 0.00 in0.0 mm 0.00 in0.0 mm
06:10 AM 23.0°F-5.0°C 17.5°F-8.1°C 79% Calm Calm -- 30.46 in1031.5 mb - 0.00 in0.0 mm 0.00 in0.0 mm
06:15 AM 22.9°F-5.1°C 17.4°F-8.1°C 79% Calm Calm -- 30.47 in1031.8 mb - 0.00 in0.0 mm 0.00 in0.0 mm
06:20 AM 22.9°F-5.1°C 17.4°F-8.1°C 79% Calm Calm -- 30.47 in1031.8 mb - 0.00 in0.0 mm 0.00 in0.0 mm
06:25 AM 22.9°F-5.1°C 17.4°F-8.1°C 79% Calm Calm -- 30.47 in1031.8 mb - 0.00 in0.0 mm 0.00 in0.0 mm
06:30 AM 23.1°F-4.9°C 17.8°F-7.9°C 80% 1.2 mph NNE1.9 kmh NNE 2.3 mph3.7 kmh 30.47 in1031.8 mb - 0.00 in0.0 mm 0.00 in0.0 mm
06:35 AM 23.1°F-4.9°C 17.8°F-7.9°C 80% 1.2 mph NNE1.9 kmh NNE 2.3 mph3.7 kmh 30.47 in1031.8 mb - 0.00 in0.0 mm 0.00 in0.0 mm
06:40 AM 22.9°F-5.1°C 17.7°F-7.9°C 80% Calm Calm -- 30.47 in1031.8 mb - 0.00 in0.0 mm 0.00 in0.0 mm
06:45 AM 22.8°F-5.1°C 17.6°F-8.0°C 80% 2.3 mph NNE3.7 kmh NNE 3.5 mph5.6 kmh 30.47 in1031.8 mb - 0.00 in0.0 mm 0.00 in0.0 mm
06:50 AM 23.0°F-5.0°C 17.7°F-7.9°C 80% 1.2 mph NNE1.9 kmh NNE 2.3 mph3.7 kmh 30.47 in1031.8 mb - 0.00 in0.0 mm 0.00 in0.0 mm
06:55 AM 23.2°F-4.9°C 17.9°F-7.8°C 80% 2.3 mph ENE3.7 kmh ENE 2.3 mph3.7 kmh 30.47 in1031.8 mb - 0.00 in0.0 mm 0.00 in0.0 mm
07:00 AM 23.2°F-4.9°C 17.9°F-7.8°C 80% 2.3 mph ENE3.7 kmh ENE 3.5 mph5.6 kmh 30.47 in1031.8 mb - 0.00 in0.0 mm 0.00 in0.0 mm
07:05 AM 23.1°F-4.9°C 17.8°F-7.9°C 80% 1.2 mph ENE1.9 kmh ENE 3.5 mph5.6 kmh 30.47 in1031.8 mb - 0.00 in0.0 mm 0.00 in0.0 mm
07:10 AM 23.0°F-5.0°C 17.7°F-7.9°C 80% 2.3 mph ENE3.7 kmh ENE 3.5 mph5.6 kmh 30.47 in1031.8 mb - 0.00 in0.0 mm 0.00 in0.0 mm
07:15 AM 23.1°F-4.9°C 17.8°F-7.9°C 80% 2.3 mph ENE3.7 kmh ENE 3.5 mph5.6 kmh 30.48 in1032.2 mb - 0.00 in0.0 mm 0.00 in0.0 mm
07:20 AM 23.3°F-4.8°C 18.0°F-7.8°C 80% 1.2 mph ENE1.9 kmh ENE 3.5 mph5.6 kmh 30.47 in1031.8 mb - 0.00 in0.0 mm 0.00 in0.0 mm
07:25 AM 23.4°F-4.8°C 18.1°F-7.7°C 80% 1.2 mph ENE1.9 kmh ENE 2.3 mph3.7 kmh 30.48 in1032.2 mb - 0.00 in0.0 mm 0.00 in0.0 mm
07:30 AM 23.4°F-4.8°C 18.1°F-7.7°C 80% 2.3 mph ENE3.7 kmh ENE 3.5 mph5.6 kmh 30.48 in1032.2 mb - 0.00 in0.0 mm 0.00 in0.0 mm
07:35 AM 23.4°F-4.8°C 18.1°F-7.7°C 80% 1.2 mph ENE1.9 kmh ENE 2.3 mph3.7 kmh 30.48 in1032.2 mb - 0.00 in0.0 mm 0.00 in0.0 mm
07:40 AM 23.3°F-4.8°C 18.0°F-7.8°C 80% Calm Calm -- 30.48 in1032.2 mb - 0.00 in0.0 mm 0.00 in0.0 mm
07:45 AM 23.1°F-4.9°C 17.8°F-7.9°C 80% Calm Calm -- 30.48 in1032.2 mb - 0.00 in0.0 mm 0.00 in0.0 mm
07:50 AM 22.8°F-5.1°C 17.6°F-8.0°C 80% Calm Calm -- 30.49 in1032.5 mb - 0.00 in0.0 mm 0.00 in0.0 mm
07:55 AM 22.5°F-5.3°C 17.3°F-8.2°C 80% Calm Calm -- 30.49 in1032.5 mb - 0.00 in0.0 mm 0.00 in0.0 mm
08:00 AM 22.5°F-5.3°C 17.3°F-8.2°C 80% Calm Calm -- 30.49 in1032.5 mb - 0.00 in0.0 mm 0.00 in0.0 mm
08:05 AM 22.6°F-5.2°C 17.4°F-8.1°C 80% Calm Calm -- 30.49 in1032.5 mb - 0.00 in0.0 mm 0.00 in0.0 mm
08:10 AM 22.3°F-5.4°C 17.1°F-8.3°C 80% Calm Calm -- 30.49 in1032.5 mb - 0.00 in0.0 mm 0.00 in0.0 mm
08:15 AM 22.2°F-5.4°C 17.0°F-8.3°C 80% Calm Calm -- 30.49 in1032.5 mb - 0.00 in0.0 mm 0.00 in0.0 mm
08:20 AM 22.3°F-5.4°C 17.0°F-8.3°C 80% Calm Calm -- 30.49 in1032.5 mb - 0.00 in0.0 mm 0.00 in0.0 mm
08:25 AM 22.2°F-5.4°C 17.0°F-8.3°C 80% Calm Calm -- 30.49 in1032.5 mb - 0.00 in0.0 mm 0.00 in0.0 mm
08:30 AM 22.0°F-5.6°C 16.7°F-8.5°C 80% Calm Calm -- 30.49 in1032.5 mb - 0.00 in0.0 mm 0.00 in0.0 mm
08:35 AM 21.7°F-5.7°C 16.5°F-8.6°C 80% Calm Calm -- 30.50 in1032.8 mb - 0.00 in0.0 mm 0.00 in0.0 mm
08:40 AM 21.5°F-5.8°C 16.3°F-8.7°C 80% Calm Calm -- 30.50 in1032.8 mb - 0.00 in0.0 mm 0.00 in0.0 mm
08:45 AM 21.5°F-5.8°C 16.3°F-8.7°C 80% 1.2 mph ENE1.9 kmh ENE 2.3 mph3.7 kmh 30.50 in1032.8 mb - 0.00 in0.0 mm 0.00 in0.0 mm
08:50 AM 21.6°F-5.8°C 16.4°F-8.7°C 80% Calm Calm -- 30.50 in1032.8 mb - 0.00 in0.0 mm 0.00 in0.0 mm
08:55 AM 21.6°F-5.8°C 16.4°F-8.7°C 80% Calm Calm -- 30.50 in1032.8 mb - 0.00 in0.0 mm 0.00 in0.0 mm
09:00 AM 21.6°F-5.8°C 16.4°F-8.7°C 80% Calm Calm -- 30.51 in1033.2 mb - 0.00 in0.0 mm 0.00 in0.0 mm
09:05 AM 21.5°F-5.8°C 16.2°F-8.8°C 80% Calm Calm -- 30.51 in1033.2 mb - 0.00 in0.0 mm 0.00 in0.0 mm
09:10 AM 21.3°F-5.9°C 16.1°F-8.8°C 80% Calm Calm -- 30.51 in1033.2 mb - 0.00 in0.0 mm 0.00 in0.0 mm
09:15 AM 21.5°F-5.8°C 16.2°F-8.8°C 80% Calm Calm -- 30.51 in1033.2 mb - 0.00 in0.0 mm 0.00 in0.0 mm
09:20 AM 21.6°F-5.8°C 16.4°F-8.7°C 80% Calm Calm -- 30.51 in1033.2 mb - 0.00 in0.0 mm 0.00 in0.0 mm
09:25 AM 21.7°F-5.7°C 16.5°F-8.6°C 80% Calm Calm -- 30.51 in1033.2 mb - 0.00 in0.0 mm 0.00 in0.0 mm
09:30 AM 22.0°F-5.6°C 17.1°F-8.3°C 81% Calm Calm -- 30.51 in1033.2 mb - 0.00 in0.0 mm 0.00 in0.0 mm
09:35 AM 22.0°F-5.6°C 17.1°F-8.3°C 81% Calm Calm -- 30.51 in1033.2 mb - 0.00 in0.0 mm 0.00 in0.0 mm
09:40 AM 22.1°F-5.5°C 17.2°F-8.2°C 81% Calm Calm -- 30.52 in1033.5 mb - 0.00 in0.0 mm 0.00 in0.0 mm
09:45 AM 22.1°F-5.5°C 17.2°F-8.2°C 81% Calm Calm -- 30.52 in1033.5 mb - 0.00 in0.0 mm 0.00 in0.0 mm
09:50 AM 22.0°F-5.6°C 17.1°F-8.3°C 81% Calm Calm -- 30.52 in1033.5 mb - 0.00 in0.0 mm 0.00 in0.0 mm
09:55 AM 22.0°F-5.6°C 17.1°F-8.3°C 81% Calm Calm -- 30.52 in1033.5 mb - 0.00 in0.0 mm 0.00 in0.0 mm
10:00 AM 22.0°F-5.6°C 17.1°F-8.3°C 81% Calm Calm -- 30.52 in1033.5 mb - 0.00 in0.0 mm 0.00 in0.0 mm
10:05 AM 22.3°F-5.4°C 17.4°F-8.1°C 81% Calm Calm -- 30.52 in1033.5 mb - 0.00 in0.0 mm 0.00 in0.0 mm
10:10 AM 22.7°F-5.2°C 17.7°F-7.9°C 81% Calm Calm -- 30.51 in1033.2 mb - 0.00 in0.0 mm 0.00 in0.0 mm
10:15 AM 22.9°F-5.1°C 17.9°F-7.8°C 81% 1.2 mph NE1.9 kmh NE 1.2 mph1.9 kmh 30.52 in1033.5 mb - 0.00 in0.0 mm 0.00 in0.0 mm
10:20 AM 23.1°F-4.9°C 18.2°F-7.7°C 81% 1.2 mph NE1.9 kmh NE 2.3 mph3.7 kmh 30.52 in1033.5 mb - 0.00 in0.0 mm 0.00 in0.0 mm
10:25 AM 23.7°F-4.6°C 18.7°F-7.4°C 81% 1.2 mph NE1.9 kmh NE 2.3 mph3.7 kmh 30.52 in1033.5 mb - 0.00 in0.0 mm 0.00 in0.0 mm
10:30 AM 23.8°F-4.6°C 18.9°F-7.3°C 81% Calm Calm 1.2 mph1.9 kmh 30.51 in1033.2 mb - 0.00 in0.0 mm 0.00 in0.0 mm
10:35 AM 24.0°F-4.4°C 19.0°F-7.2°C 81% 1.2 mph WSW1.9 kmh WSW 2.3 mph3.7 kmh 30.51 in1033.2 mb - 0.00 in0.0 mm 0.00 in0.0 mm
10:40 AM 24.2°F-4.3°C 19.2°F-7.1°C 81% Calm Calm 1.2 mph1.9 kmh 30.51 in1033.2 mb - 0.00 in0.0 mm 0.00 in0.0 mm
10:45 AM 24.3°F-4.3°C 19.3°F-7.1°C 81% Calm Calm 1.2 mph1.9 kmh 30.51 in1033.2 mb - 0.00 in0.0 mm 0.00 in0.0 mm
10:50 AM 24.6°F-4.1°C 19.6°F-6.9°C 81% Calm Calm 1.2 mph1.9 kmh 30.51 in1033.2 mb - 0.00 in0.0 mm 0.00 in0.0 mm
10:55 AM 24.7°F-4.1°C 19.7°F-6.8°C 81% 1.2 mph WSW1.9 kmh WSW 2.3 mph3.7 kmh 30.51 in1033.2 mb - 0.00 in0.0 mm 0.00 in0.0 mm
11:00 AM 24.9°F-3.9°C 19.9°F-6.7°C 81% Calm Calm -- 30.51 in1033.2 mb - 0.00 in0.0 mm 0.00 in0.0 mm
11:05 AM 24.9°F-3.9°C 19.9°F-6.7°C 81% Calm Calm -- 30.51 in1033.2 mb - 0.00 in0.0 mm 0.00 in0.0 mm
11:10 AM 24.9°F-3.9°C 19.9°F-6.7°C 81% Calm Calm -- 30.50 in1032.8 mb - 0.00 in0.0 mm 0.00 in0.0 mm
11:15 AM 25.0°F-3.9°C 20.0°F-6.7°C 81% Calm Calm -- 30.50 in1032.8 mb - 0.00 in0.0 mm 0.00 in0.0 mm
11:20 AM 25.3°F-3.7°C 19.9°F-6.7°C 80% Calm Calm -- 30.50 in1032.8 mb - 0.00 in0.0 mm 0.00 in0.0 mm
11:25 AM 25.6°F-3.6°C 20.3°F-6.5°C 80% Calm Calm -- 30.50 in1032.8 mb - 0.00 in0.0 mm 0.00 in0.0 mm
11:30 AM 26.3°F-3.2°C 21.2°F-6.0°C 81% Calm Calm -- 30.50 in1032.8 mb - 0.00 in0.0 mm 0.00 in0.0 mm
11:35 AM 26.9°F-2.8°C 21.9°F-5.6°C 81% Calm Calm -- 30.50 in1032.8 mb - 0.00 in0.0 mm 0.00 in0.0 mm
11:40 AM 27.7°F-2.4°C 22.6°F-5.2°C 81% Calm Calm -- 30.50 in1032.8 mb - 0.00 in0.0 mm 0.00 in0.0 mm
11:45 AM 28.3°F-2.1°C 22.9°F-5.1°C 80% Calm Calm -- 30.50 in1032.8 mb - 0.00 in0.0 mm 0.00 in0.0 mm
11:50 AM 28.7°F-1.8°C 23.1°F-4.9°C 79% Calm Calm -- 30.50 in1032.8 mb - 0.00 in0.0 mm 0.00 in0.0 mm
11:55 AM 29.0°F-1.7°C 23.4°F-4.8°C 79% 1.2 mph WSW1.9 kmh WSW 2.3 mph3.7 kmh 30.50 in1032.8 mb - 0.00 in0.0 mm 0.00 in0.0 mm
12:00 PM 29.3°F-1.5°C 23.6°F-4.7°C 79% Calm Calm -- 30.50 in1032.8 mb - 0.00 in0.0 mm 0.00 in0.0 mm
12:05 PM 29.4°F-1.4°C 23.4°F-4.8°C 78% Calm Calm -- 30.50 in1032.8 mb - 0.00 in0.0 mm 0.00 in0.0 mm
12:10 PM 29.7°F-1.3°C 23.7°F-4.6°C 78% Calm Calm -- 30.49 in1032.5 mb - 0.00 in0.0 mm 0.00 in0.0 mm
12:15 PM 29.8°F-1.2°C 23.8°F-4.6°C 78% 1.2 mph WSW1.9 kmh WSW 2.3 mph3.7 kmh 30.49 in1032.5 mb - 0.00 in0.0 mm 0.00 in0.0 mm
12:20 PM 30.1°F-1.1°C 24.1°F-4.4°C 78% 2.3 mph WSW3.7 kmh WSW 3.5 mph5.6 kmh 30.49 in1032.5 mb - 0.00 in0.0 mm 0.00 in0.0 mm
12:25 PM 30.2°F-1.0°C 24.2°F-4.3°C 78% 2.3 mph WSW3.7 kmh WSW 3.5 mph5.6 kmh 30.49 in1032.5 mb - 0.00 in0.0 mm 0.00 in0.0 mm
12:30 PM 30.2°F-1.0°C 24.2°F-4.3°C 78% 2.3 mph WSW3.7 kmh WSW 3.5 mph5.6 kmh 30.49 in1032.5 mb - 0.00 in0.0 mm 0.00 in0.0 mm
12:35 PM 30.2°F-1.0°C 24.2°F-4.3°C 78% Calm Calm 1.2 mph1.9 kmh 30.49 in1032.5 mb - 0.00 in0.0 mm 0.00 in0.0 mm
12:40 PM 30.5°F-0.8°C 24.5°F-4.2°C 78% Calm Calm -- 30.50 in1032.8 mb - 0.00 in0.0 mm 0.00 in0.0 mm
12:45 PM 31.0°F-0.6°C 24.7°F-4.1°C 77% 1.2 mph WSW1.9 kmh WSW 2.3 mph3.7 kmh 30.49 in1032.5 mb - 0.00 in0.0 mm 0.00 in0.0 mm
12:50 PM 31.4°F-0.3°C 25.3°F-3.7°C 78% Calm Calm -- 30.49 in1032.5 mb - 0.00 in0.0 mm 0.00 in0.0 mm
12:55 PM 31.8°F-0.1°C 25.4°F-3.7°C 77% Calm Calm -- 30.49 in1032.5 mb - 0.00 in0.0 mm 0.00 in0.0 mm
01:00 PM 32.0°F0.0°C 25.6°F-3.6°C 77% Calm Calm -- 30.49 in1032.5 mb - 0.00 in0.0 mm 0.00 in0.0 mm
01:05 PM 32.2°F0.1°C 25.8°F-3.4°C 77% Calm Calm -- 30.49 in1032.5 mb - 0.00 in0.0 mm 0.00 in0.0 mm
01:10 PM 32.2°F0.1°C 25.8°F-3.4°C 77% Calm Calm -- 30.49 in1032.5 mb - 0.00 in0.0 mm 0.00 in0.0 mm
01:15 PM 32.1°F0.1°C 25.7°F-3.5°C 77% 2.3 mph WSW3.7 kmh WSW 3.5 mph5.6 kmh 30.49 in1032.5 mb - 0.00 in0.0 mm 0.00 in0.0 mm
01:20 PM 32.1°F0.1°C 25.7°F-3.5°C 77% 2.3 mph WSW3.7 kmh WSW 2.3 mph3.7 kmh 30.49 in1032.5 mb - 0.00 in0.0 mm 0.00 in0.0 mm
01:25 PM 32.2°F0.1°C 25.8°F-3.4°C 77% 1.2 mph WSW1.9 kmh WSW 2.3 mph3.7 kmh 30.49 in1032.5 mb - 0.00 in0.0 mm 0.00 in0.0 mm
01:30 PM 32.4°F0.2°C 26.0°F-3.3°C 77% Calm Calm 1.2 mph1.9 kmh 30.49 in1032.5 mb - 0.00 in0.0 mm 0.00 in0.0 mm
01:35 PM 32.3°F0.2°C 25.9°F-3.4°C 77% Calm Calm -- 30.49 in1032.5 mb - 0.00 in0.0 mm 0.00 in0.0 mm
01:40 PM 32.3°F0.2°C 25.9°F-3.4°C 77% Calm Calm -- 30.49 in1032.5 mb - 0.00 in0.0 mm 0.00 in0.0 mm
01:45 PM 32.3°F0.2°C 25.9°F-3.4°C 77% Calm Calm -- 30.49 in1032.5 mb - 0.00 in0.0 mm 0.00 in0.0 mm
01:50 PM 32.4°F0.2°C 26.0°F-3.3°C 77% Calm Calm -- 30.49 in1032.5 mb - 0.00 in0.0 mm 0.00 in0.0 mm
01:55 PM 32.3°F0.2°C 25.9°F-3.4°C 77% Calm Calm -- 30.49 in1032.5 mb - 0.00 in0.0 mm 0.00 in0.0 mm
02:00 PM 32.3°F0.2°C 25.9°F-3.4°C 77% Calm Calm -- 30.49 in1032.5 mb - 0.00 in0.0 mm 0.00 in0.0 mm
02:05 PM 32.4°F0.2°C 26.0°F-3.3°C 77% Calm Calm -- 30.49 in1032.5 mb - 0.00 in0.0 mm 0.00 in0.0 mm
02:10 PM 32.5°F0.3°C 26.1°F-3.3°C 77% Calm Calm -- 30.49 in1032.5 mb - 0.00 in0.0 mm 0.00 in0.0 mm
02:15 PM 32.8°F0.4°C 26.4°F-3.1°C 77% Calm Calm -- 30.49 in1032.5 mb - 0.00 in0.0 mm 0.00 in0.0 mm
02:20 PM 32.8°F0.4°C 26.4°F-3.1°C 77% Calm Calm -- 30.48 in1032.2 mb - 0.00 in0.0 mm 0.00 in0.0 mm
02:25 PM 32.8°F0.4°C 26.4°F-3.1°C 77% Calm Calm -- 30.48 in1032.2 mb - 0.00 in0.0 mm 0.00 in0.0 mm
02:30 PM 33.4°F0.8°C 26.6°F-3.0°C 76% Calm Calm -- 30.48 in1032.2 mb - 0.00 in0.0 mm 0.00 in0.0 mm
02:35 PM 33.5°F0.8°C 26.7°F-2.9°C 76% Calm Calm -- 30.48 in1032.2 mb - 0.00 in0.0 mm 0.00 in0.0 mm
02:40 PM 33.1°F0.6°C 26.7°F-2.9°C 77% Calm Calm -- 30.48 in1032.2 mb - 0.00 in0.0 mm 0.00 in0.0 mm
02:45 PM 32.7°F0.4°C 26.3°F-3.2°C 77% Calm Calm -- 30.48 in1032.2 mb - 0.00 in0.0 mm 0.00 in0.0 mm
02:50 PM 32.6°F0.3°C 26.2°F-3.2°C 77% Calm Calm -- 30.48 in1032.2 mb - 0.00 in0.0 mm 0.00 in0.0 mm
02:55 PM 32.7°F0.4°C 26.3°F-3.2°C 77% Calm Calm -- 30.48 in1032.2 mb - 0.00 in0.0 mm 0.00 in0.0 mm
03:00 PM 32.6°F0.3°C 26.2°F-3.2°C 77% Calm Calm -- 30.48 in1032.2 mb - 0.00 in0.0 mm 0.00 in0.0 mm
03:05 PM 32.6°F0.3°C 26.2°F-3.2°C 77% Calm Calm -- 30.48 in1032.2 mb - 0.01 in0.3 mm 0.01 in0.3 mm
03:10 PM 32.5°F0.3°C 26.1°F-3.3°C 77% Calm Calm -- 30.47 in1031.8 mb - 0.00 in0.0 mm 0.01 in0.3 mm
03:15 PM 32.2°F0.1°C 25.8°F-3.4°C 77% Calm Calm -- 30.48 in1032.2 mb - 0.00 in0.0 mm 0.01 in0.3 mm
03:20 PM 31.9°F-0.1°C 25.5°F-3.6°C 77% Calm Calm -- 30.48 in1032.2 mb - 0.00 in0.0 mm 0.01 in0.3 mm
03:25 PM 31.7°F-0.2°C 25.3°F-3.7°C 77% Calm Calm -- 30.47 in1031.8 mb - 0.00 in0.0 mm 0.01 in0.3 mm
03:30 PM 31.5°F-0.3°C 25.4°F-3.7°C 78% Calm Calm -- 30.47 in1031.8 mb - 0.00 in0.0 mm 0.01 in0.3 mm
03:35 PM 31.2°F-0.4°C 25.1°F-3.8°C 78% Calm Calm -- 30.47 in1031.8 mb - 0.00 in0.0 mm 0.01 in0.3 mm
03:40 PM 30.9°F-0.6°C 24.8°F-4.0°C 78% Calm Calm -- 30.47 in1031.8 mb - 0.00 in0.0 mm 0.01 in0.3 mm
03:45 PM 30.6°F-0.8°C 24.6°F-4.1°C 78% Calm Calm -- 30.47 in1031.8 mb - 0.00 in0.0 mm 0.01 in0.3 mm
03:50 PM 30.4°F-0.9°C 24.4°F-4.2°C 78% Calm Calm -- 30.47 in1031.8 mb - 0.00 in0.0 mm 0.01 in0.3 mm
03:55 PM 30.2°F-1.0°C 24.2°F-4.3°C 78% Calm Calm 3.5 mph5.6 kmh 30.47 in1031.8 mb - 0.00 in0.0 mm 0.01 in0.3 mm
04:00 PM 30.0°F-1.1°C 24.0°F-4.4°C 78% 2.3 mph N3.7 kmh N 3.5 mph5.6 kmh 30.47 in1031.8 mb - 0.00 in0.0 mm 0.01 in0.3 mm
04:05 PM 29.9°F-1.2°C 23.9°F-4.5°C 78% Calm Calm -- 30.47 in1031.8 mb - 0.00 in0.0 mm 0.01 in0.3 mm
04:10 PM 29.7°F-1.3°C 23.7°F-4.6°C 78% Calm Calm 1.2 mph1.9 kmh 30.47 in1031.8 mb - 0.00 in0.0 mm 0.01 in0.3 mm
04:15 PM 29.5°F-1.4°C 23.5°F-4.7°C 78% 1.2 mph N1.9 kmh N 2.3 mph3.7 kmh 30.47 in1031.8 mb - 0.00 in0.0 mm 0.01 in0.3 mm
04:20 PM 29.2°F-1.6°C 23.2°F-4.9°C 78% Calm Calm -- 30.47 in1031.8 mb - 0.00 in0.0 mm 0.01 in0.3 mm
04:25 PM 28.9°F-1.7°C 22.9°F-5.1°C 78% Calm Calm -- 30.47 in1031.8 mb - 0.00 in0.0 mm 0.01 in0.3 mm
04:30 PM 28.7°F-1.8°C 22.7°F-5.2°C 78% Calm Calm -- 30.47 in1031.8 mb - 0.00 in0.0 mm 0.01 in0.3 mm
04:35 PM 28.4°F-2.0°C 22.4°F-5.3°C 78% Calm Calm -- 30.47 in1031.8 mb - 0.00 in0.0 mm 0.01 in0.3 mm
04:40 PM 28.2°F-2.1°C 22.2°F-5.4°C 78% Calm Calm -- 30.47 in1031.8 mb - 0.00 in0.0 mm 0.01 in0.3 mm
04:45 PM 28.1°F-2.2°C 22.1°F-5.5°C 78% Calm Calm -- 30.47 in1031.8 mb - 0.00 in0.0 mm 0.01 in0.3 mm
04:50 PM 27.9°F-2.3°C 21.9°F-5.6°C 78% Calm Calm -- 30.47 in1031.8 mb - 0.00 in0.0 mm 0.01 in0.3 mm
04:55 PM 27.7°F-2.4°C 21.7°F-5.7°C 78% Calm Calm -- 30.47 in1031.8 mb - 0.00 in0.0 mm 0.01 in0.3 mm
05:00 PM 27.6°F-2.4°C 21.6°F-5.8°C 78% Calm Calm -- 30.47 in1031.8 mb - 0.00 in0.0 mm 0.01 in0.3 mm
05:05 PM 27.5°F-2.5°C 21.5°F-5.8°C 78% Calm Calm -- 30.47 in1031.8 mb - 0.00 in0.0 mm 0.01 in0.3 mm
05:10 PM 27.4°F-2.6°C 21.4°F-5.9°C 78% Calm Calm -- 30.47 in1031.8 mb - 0.00 in0.0 mm 0.01 in0.3 mm
05:15 PM 27.3°F-2.6°C 21.3°F-5.9°C 78% 1.2 mph N1.9 kmh N 2.3 mph3.7 kmh 30.47 in1031.8 mb - 0.00 in0.0 mm 0.01 in0.3 mm
05:20 PM 27.2°F-2.7°C 21.2°F-6.0°C 78% 2.3 mph N3.7 kmh N 3.5 mph5.6 kmh 30.47 in1031.8 mb - 0.00 in0.0 mm 0.01 in0.3 mm
05:25 PM 27.2°F-2.7°C 21.2°F-6.0°C 78% 1.2 mph N1.9 kmh N 2.3 mph3.7 kmh 30.47 in1031.8 mb - 0.00 in0.0 mm 0.01 in0.3 mm
05:30 PM 27.1°F-2.7°C 21.2°F-6.0°C 78% 1.2 mph N1.9 kmh N 2.3 mph3.7 kmh 30.47 in1031.8 mb - 0.00 in0.0 mm 0.01 in0.3 mm
05:35 PM 27.1°F-2.7°C 21.1°F-6.1°C 78% 2.3 mph N3.7 kmh N 3.5 mph5.6 kmh 30.47 in1031.8 mb - 0.00 in0.0 mm 0.01 in0.3 mm
05:40 PM 27.0°F-2.8°C 21.1°F-6.1°C 78% 1.2 mph N1.9 kmh N 2.3 mph3.7 kmh 30.47 in1031.8 mb - 0.00 in0.0 mm 0.01 in0.3 mm
05:45 PM 27.0°F-2.8°C 21.1°F-6.1°C 78% 1.2 mph N1.9 kmh N 2.3 mph3.7 kmh 30.47 in1031.8 mb - 0.00 in0.0 mm 0.01 in0.3 mm
05:50 PM 26.9°F-2.8°C 21.0°F-6.1°C 78% 1.2 mph N1.9 kmh N 2.3 mph3.7 kmh 30.47 in1031.8 mb - 0.00 in0.0 mm 0.01 in0.3 mm
05:55 PM 26.7°F-2.9°C 20.7°F-6.3°C 78% 2.3 mph N3.7 kmh N 3.5 mph5.6 kmh 30.47 in1031.8 mb - 0.00 in0.0 mm 0.01 in0.3 mm
06:00 PM 26.6°F-3.0°C 20.7°F-6.3°C 78% 2.3 mph N3.7 kmh N 3.5 mph5.6 kmh 30.47 in1031.8 mb - 0.00 in0.0 mm 0.01 in0.3 mm
06:05 PM 26.6°F-3.0°C 20.7°F-6.3°C 78% 2.3 mph N3.7 kmh N 3.5 mph5.6 kmh 30.47 in1031.8 mb - 0.00 in0.0 mm 0.01 in0.3 mm
06:10 PM 26.7°F-2.9°C 20.7°F-6.3°C 78% 1.2 mph N1.9 kmh N 3.5 mph5.6 kmh 30.47 in1031.8 mb - 0.00 in0.0 mm 0.01 in0.3 mm
06:15 PM 26.8°F-2.9°C 20.9°F-6.2°C 78% 1.2 mph N1.9 kmh N 3.5 mph5.6 kmh 30.47 in1031.8 mb - 0.00 in0.0 mm 0.01 in0.3 mm
06:20 PM 26.9°F-2.8°C 21.0°F-6.1°C 78% 2.3 mph N3.7 kmh N 2.3 mph3.7 kmh 30.48 in1032.2 mb - 0.00 in0.0 mm 0.01 in0.3 mm
06:25 PM 27.0°F-2.8°C 21.1°F-6.1°C 78% 1.2 mph N1.9 kmh N 3.5 mph5.6 kmh 30.47 in1031.8 mb - 0.00 in0.0 mm 0.01 in0.3 mm
06:30 PM 27.0°F-2.8°C 21.1°F-6.1°C 78% 2.3 mph N3.7 kmh N 3.5 mph5.6 kmh 30.48 in1032.2 mb - 0.00 in0.0 mm 0.01 in0.3 mm
06:35 PM 26.8°F-2.9°C 20.9°F-6.2°C 78% 1.2 mph N1.9 kmh N 2.3 mph3.7 kmh 30.48 in1032.2 mb - 0.00 in0.0 mm 0.01 in0.3 mm
06:40 PM 26.5°F-3.1°C 20.6°F-6.3°C 78% 2.3 mph N3.7 kmh N 3.5 mph5.6 kmh 30.48 in1032.2 mb - 0.00 in0.0 mm 0.01 in0.3 mm
06:45 PM 26.1°F-3.3°C 20.2°F-6.6°C 78% 1.2 mph N1.9 kmh N 2.3 mph3.7 kmh 30.48 in1032.2 mb - 0.00 in0.0 mm 0.01 in0.3 mm
06:50 PM 25.9°F-3.4°C 20.0°F-6.7°C 78% 1.2 mph N1.9 kmh N 3.5 mph5.6 kmh 30.48 in1032.2 mb - 0.00 in0.0 mm 0.01 in0.3 mm
06:55 PM 25.7°F-3.5°C 19.8°F-6.8°C 78% 1.2 mph N1.9 kmh N 3.5 mph5.6 kmh 30.48 in1032.2 mb - 0.00 in0.0 mm 0.01 in0.3 mm
07:00 PM 25.7°F-3.5°C 19.8°F-6.8°C 78% 1.2 mph N1.9 kmh N 3.5 mph5.6 kmh 30.48 in1032.2 mb - 0.00 in0.0 mm 0.01 in0.3 mm
07:05 PM 25.8°F-3.4°C 19.9°F-6.7°C 78% 1.2 mph N1.9 kmh N 2.3 mph3.7 kmh 30.48 in1032.2 mb - 0.00 in0.0 mm 0.01 in0.3 mm
07:10 PM 25.8°F-3.4°C 19.9°F-6.7°C 78% 1.2 mph N1.9 kmh N 2.3 mph3.7 kmh 30.48 in1032.2 mb - 0.00 in0.0 mm 0.01 in0.3 mm
07:15 PM 25.8°F-3.4°C 19.9°F-6.7°C 78% 1.2 mph N1.9 kmh N 2.3 mph3.7 kmh 30.48 in1032.2 mb - 0.00 in0.0 mm 0.01 in0.3 mm
07:20 PM 25.7°F-3.5°C 19.8°F-6.8°C 78% 1.2 mph N1.9 kmh N 2.3 mph3.7 kmh 30.48 in1032.2 mb - 0.00 in0.0 mm 0.01 in0.3 mm
07:25 PM 25.6°F-3.6°C 19.7°F-6.8°C 78% 1.2 mph N1.9 kmh N 2.3 mph3.7 kmh 30.47 in1031.8 mb - 0.00 in0.0 mm 0.01 in0.3 mm
07:30 PM 25.6°F-3.6°C 19.6°F-6.9°C 78% 1.2 mph N1.9 kmh N 2.3 mph3.7 kmh 30.47 in1031.8 mb - 0.00 in0.0 mm 0.01 in0.3 mm
07:35 PM 25.6°F-3.6°C 19.7°F-6.8°C 78% 1.2 mph N1.9 kmh N 2.3 mph3.7 kmh 30.47 in1031.8 mb - 0.00 in0.0 mm 0.01 in0.3 mm
07:40 PM 25.4°F-3.7°C 19.5°F-6.9°C 78% 1.2 mph N1.9 kmh N 2.3 mph3.7 kmh 30.47 in1031.8 mb - 0.00 in0.0 mm 0.01 in0.3 mm
07:45 PM 25.2°F-3.8°C 19.3°F-7.1°C 78% 1.2 mph N1.9 kmh N 2.3 mph3.7 kmh 30.47 in1031.8 mb - 0.00 in0.0 mm 0.01 in0.3 mm
07:50 PM 25.2°F-3.8°C 19.3°F-7.1°C 78% 2.3 mph N3.7 kmh N 3.5 mph5.6 kmh 30.47 in1031.8 mb - 0.00 in0.0 mm 0.01 in0.3 mm
07:55 PM 25.2°F-3.8°C 19.3°F-7.1°C 78% 1.2 mph N1.9 kmh N 2.3 mph3.7 kmh 30.47 in1031.8 mb - 0.00 in0.0 mm 0.01 in0.3 mm
08:00 PM 25.2°F-3.8°C 19.3°F-7.1°C 78% 1.2 mph N1.9 kmh N 1.2 mph1.9 kmh 30.47 in1031.8 mb - 0.00 in0.0 mm 0.01 in0.3 mm
08:05 PM 25.1°F-3.8°C 19.2°F-7.1°C 78% Calm Calm -- 30.47 in1031.8 mb - 0.00 in0.0 mm 0.01 in0.3 mm
08:10 PM 24.9°F-3.9°C 19.0°F-7.2°C 78% 1.2 mph N1.9 kmh N 2.3 mph3.7 kmh 30.47 in1031.8 mb - 0.00 in0.0 mm 0.01 in0.3 mm
08:15 PM 24.7°F-4.1°C 18.9°F-7.3°C 78% 1.2 mph N1.9 kmh N 2.3 mph3.7 kmh 30.47 in1031.8 mb - 0.00 in0.0 mm 0.01 in0.3 mm
08:20 PM 24.8°F-4.0°C 19.2°F-7.1°C 79% 2.3 mph N3.7 kmh N 3.5 mph5.6 kmh 30.47 in1031.8 mb - 0.00 in0.0 mm 0.01 in0.3 mm
08:25 PM 24.7°F-4.1°C 19.1°F-7.2°C 79% 1.2 mph N1.9 kmh N 1.2 mph1.9 kmh 30.47 in1031.8 mb - 0.00 in0.0 mm 0.01 in0.3 mm
08:30 PM 24.7°F-4.1°C 19.1°F-7.2°C 79% 1.2 mph N1.9 kmh N 1.2 mph1.9 kmh 30.47 in1031.8 mb - 0.00 in0.0 mm 0.01 in0.3 mm
08:35 PM 24.7°F-4.1°C 19.1°F-7.2°C 79% 1.2 mph N1.9 kmh N 2.3 mph3.7 kmh 30.47 in1031.8 mb - 0.00 in0.0 mm 0.01 in0.3 mm
08:40 PM 24.6°F-4.1°C 19.0°F-7.2°C 79% Calm Calm -- 30.47 in1031.8 mb - 0.00 in0.0 mm 0.01 in0.3 mm
08:45 PM 24.4°F-4.2°C 18.8°F-7.3°C 79% Calm Calm -- 30.47 in1031.8 mb - 0.00 in0.0 mm 0.01 in0.3 mm
08:50 PM 24.2°F-4.3°C 18.6°F-7.4°C 79% Calm Calm -- 30.47 in1031.8 mb - 0.00 in0.0 mm 0.01 in0.3 mm
08:55 PM 24.0°F-4.4°C 18.4°F-7.6°C 79% Calm Calm -- 30.47 in1031.8 mb - 0.00 in0.0 mm 0.01 in0.3 mm
09:00 PM 23.7°F-4.6°C 18.1°F-7.7°C 79% Calm Calm -- 30.47 in1031.8 mb - 0.00 in0.0 mm 0.01 in0.3 mm
09:05 PM 23.6°F-4.7°C 18.1°F-7.7°C 79% Calm Calm -- 30.47 in1031.8 mb - 0.00 in0.0 mm 0.01 in0.3 mm
09:10 PM 23.6°F-4.7°C 18.0°F-7.8°C 79% Calm Calm -- 30.47 in1031.8 mb - 0.00 in0.0 mm 0.01 in0.3 mm
09:15 PM 23.5°F-4.7°C 17.9°F-7.8°C 79% Calm Calm -- 30.47 in1031.8 mb - 0.00 in0.0 mm 0.01 in0.3 mm
09:20 PM 23.4°F-4.8°C 17.9°F-7.8°C 79% Calm Calm -- 30.47 in1031.8 mb - 0.00 in0.0 mm 0.01 in0.3 mm
09:25 PM 23.3°F-4.8°C 17.7°F-7.9°C 79% Calm Calm -- 30.47 in1031.8 mb - 0.00 in0.0 mm 0.01 in0.3 mm
09:30 PM 23.1°F-4.9°C 17.5°F-8.1°C 79% Calm Calm -- 30.47 in1031.8 mb - 0.00 in0.0 mm 0.01 in0.3 mm
09:35 PM 23.0°F-5.0°C 17.5°F-8.1°C 79% Calm Calm -- 30.47 in1031.8 mb - 0.00 in0.0 mm 0.01 in0.3 mm
09:40 PM 23.0°F-5.0°C 19.4°F-7.0°C 86% Calm Calm -- 30.47 in1031.8 mb - 0.00 in0.0 mm 0.01 in0.3 mm
09:45 PM 22.9°F-5.1°C 17.4°F-8.1°C 79% Calm Calm -- 30.47 in1031.8 mb - 0.00 in0.0 mm 0.01 in0.3 mm
09:50 PM 22.8°F-5.1°C 17.3°F-8.2°C 79% 1.2 mph N1.9 kmh N 3.5 mph5.6 kmh 30.47 in1031.8 mb - 0.00 in0.0 mm 0.01 in0.3 mm
09:55 PM 23.0°F-5.0°C 17.4°F-8.1°C 79% 2.3 mph N3.7 kmh N 2.3 mph3.7 kmh 30.47 in1031.8 mb - 0.00 in0.0 mm 0.01 in0.3 mm
10:00 PM 23.0°F-5.0°C 17.4°F-8.1°C 79% Calm Calm 1.2 mph1.9 kmh 30.47 in1031.8 mb - 0.00 in0.0 mm 0.01 in0.3 mm
10:05 PM 22.9°F-5.1°C 17.7°F-7.9°C 80% Calm Calm -- 30.47 in1031.8 mb - 0.00 in0.0 mm 0.01 in0.3 mm
10:10 PM 22.9°F-5.1°C 17.6°F-8.0°C 80% Calm Calm -- 30.47 in1031.8 mb - 0.00 in0.0 mm 0.01 in0.3 mm
10:15 PM 22.8°F-5.1°C 17.6°F-8.0°C 80% Calm Calm -- 30.47 in1031.8 mb - 0.00 in0.0 mm 0.01 in0.3 mm
10:20 PM 22.6°F-5.2°C 17.4°F-8.1°C 80% Calm Calm -- 30.47 in1031.8 mb - 0.00 in0.0 mm 0.01 in0.3 mm
10:25 PM 22.4°F-5.3°C 17.2°F-8.2°C 80% Calm Calm -- 30.47 in1031.8 mb - 0.00 in0.0 mm 0.01 in0.3 mm
10:30 PM 22.3°F-5.4°C 17.1°F-8.3°C 80% Calm Calm -- 30.47 in1031.8 mb - 0.00 in0.0 mm 0.01 in0.3 mm
10:35 PM 22.1°F-5.5°C 16.9°F-8.4°C 80% Calm Calm -- 30.47 in1031.8 mb - 0.00 in0.0 mm 0.01 in0.3 mm
10:40 PM 22.0°F-5.6°C 16.8°F-8.4°C 80% Calm Calm -- 30.46 in1031.5 mb - 0.00 in0.0 mm 0.01 in0.3 mm
10:45 PM 21.9°F-5.6°C 16.7°F-8.5°C 80% Calm Calm -- 30.46 in1031.5 mb - 0.00 in0.0 mm 0.01 in0.3 mm
10:50 PM 21.8°F-5.7°C 16.5°F-8.6°C 80% Calm Calm -- 30.46 in1031.5 mb - 0.00 in0.0 mm 0.01 in0.3 mm
10:55 PM 21.6°F-5.8°C 16.4°F-8.7°C 80% Calm Calm -- 30.46 in1031.5 mb - 0.00 in0.0 mm 0.01 in0.3 mm
11:00 PM 21.5°F-5.8°C 16.3°F-8.7°C 80% Calm Calm -- 30.46 in1031.5 mb - 0.00 in0.0 mm 0.01 in0.3 mm
11:05 PM 21.5°F-5.8°C 16.3°F-8.7°C 80% Calm Calm -- 30.46 in1031.5 mb - 0.00 in0.0 mm 0.01 in0.3 mm
11:10 PM 21.9°F-5.6°C 16.6°F-8.6°C 80% Calm Calm -- 30.46 in1031.5 mb - 0.00 in0.0 mm 0.01 in0.3 mm
11:15 PM 22.0°F-5.6°C 16.8°F-8.4°C 80% Calm Calm -- 30.46 in1031.5 mb - 0.00 in0.0 mm 0.01 in0.3 mm
11:20 PM 21.9°F-5.6°C 16.6°F-8.6°C 80% Calm Calm -- 30.46 in1031.5 mb - 0.00 in0.0 mm 0.01 in0.3 mm
11:25 PM 21.9°F-5.6°C 16.7°F-8.5°C 80% Calm Calm -- 30.46 in1031.5 mb - 0.00 in0.0 mm 0.01 in0.3 mm
11:30 PM 21.9°F-5.6°C 16.7°F-8.5°C 80% Calm Calm -- 30.46 in1031.5 mb - 0.00 in0.0 mm 0.01 in0.3 mm
11:35 PM 21.8°F-5.7°C 16.6°F-8.6°C 80% Calm Calm -- 30.46 in1031.5 mb - 0.00 in0.0 mm 0.01 in0.3 mm
11:40 PM 21.7°F-5.7°C 16.5°F-8.6°C 80% Calm Calm -- 30.45 in1031.2 mb - 0.00 in0.0 mm 0.01 in0.3 mm
11:45 PM 21.7°F-5.7°C 16.5°F-8.6°C 80% Calm Calm -- 30.45 in1031.2 mb - 0.00 in0.0 mm 0.01 in0.3 mm
11:50 PM 21.7°F-5.7°C 16.5°F-8.6°C 80% Calm Calm -- 30.45 in1031.2 mb - 0.00 in0.0 mm 0.01 in0.3 mm
11:55 PM 21.6°F-5.8°C 16.4°F-8.7°C 80% Calm Calm -- 30.45 in1031.2 mb - 0.00 in0.0 mm 0.01 in0.3 mm